Pinson, Tennessee
Current Conditions -  °F | °C
As of 7:53 PM on Thursday 20 Nov 2014 (Local Time) from KMKL Reporting Station
Overcast Overcast  
Wind Chill: 42°   Ceiling: 4800
Heat Index: 44°   Visibility: 10mi
Dew Point: 29°   Wind: 5mph
Humidity: 55%   Direction: 90°E
Pressure: 30.24"   Gusts: NA
Location:  35.49°N, 88.72°W
Report Text: KMKL 210153Z AUTO 09004KT 10SM OVC048 07/M02 A3024 RMK AO2 SLP243 T00671017
Loading
Personal Weather Stations






























Interactive Weather Map New forecast layout! Learn more

10-Day Weather Forecast

Advertisements
Track Severe Weather on mobile